createdAt,value
2022-08-28T20:31:02.980Z,6.20
2022-08-28T20:33:33.813Z,6.80
2022-08-28T20:36:08.176Z,6.70
2022-08-28T20:38:47.415Z,6.00
2022-08-28T20:41:21.828Z,6.20
2022-08-28T20:43:56.167Z,6.50
2022-08-28T20:46:27.536Z,6.50
2022-08-28T20:48:58.609Z,6.20
2022-08-28T20:51:43.130Z,5.70
2022-08-28T20:54:16.967Z,5.60
2022-08-28T20:56:47.892Z,5.20
2022-08-28T20:59:19.781Z,6.30
2022-08-28T21:01:53.893Z,6.80
2022-08-28T21:04:25.469Z,6.90
2022-08-28T21:06:56.538Z,7.70
2022-08-28T21:09:58.155Z,7.00
2022-08-28T21:12:18.435Z,6.70
2022-08-28T21:14:53.222Z,7.40
2022-08-28T21:17:29.559Z,7.00
2022-08-28T21:20:04.304Z,8.30
2022-08-28T21:22:36.113Z,8.20
2022-08-28T21:25:08.160Z,7.40
2022-08-28T21:27:39.867Z,7.00
2022-08-28T21:30:12.564Z,7.30
2022-08-28T21:32:43.843Z,7.20
2022-08-28T21:35:16.105Z,7.60
2022-08-28T21:37:46.834Z,7.40
2022-08-28T21:40:18.109Z,8.40
2022-08-28T21:42:48.735Z,7.40
2022-08-28T21:45:19.414Z,6.50
2022-08-28T21:47:49.835Z,6.40
2022-08-28T21:50:22.108Z,7.10
2022-08-28T21:52:52.551Z,6.80
2022-08-28T21:55:23.145Z,5.40
2022-08-28T21:57:53.986Z,5.90
2022-08-28T22:00:25.550Z,5.40
2022-08-28T22:02:55.914Z,5.00
2022-08-28T22:05:28.814Z,5.40
2022-08-28T22:07:59.035Z,5.40
2022-08-28T22:10:29.782Z,5.10
2022-08-28T22:13:00.211Z,5.50
2022-08-28T22:15:31.760Z,5.50
2022-08-28T22:18:02.372Z,4.50
2022-08-28T22:20:32.663Z,4.40
2022-08-28T22:23:12.620Z,4.30
2022-08-28T22:25:44.629Z,4.90
2022-08-28T22:28:15.271Z,4.80
2022-08-28T22:30:45.783Z,5.30
2022-08-28T22:33:17.136Z,5.70
2022-08-28T22:35:47.612Z,4.70
2022-08-28T22:38:18.250Z,5.20
2022-08-28T22:40:49.377Z,5.10
2022-08-28T22:43:21.438Z,4.80
2022-08-28T22:45:52.138Z,5.40
2022-08-28T22:48:22.625Z,5.40
2022-08-28T22:50:53.149Z,5.80
2022-08-28T22:53:23.611Z,5.00
2022-08-28T22:55:56.412Z,5.00
2022-08-28T22:58:26.798Z,5.90
2022-08-28T23:00:58.668Z,5.00
2022-08-28T23:03:29.681Z,5.20
2022-08-28T23:06:00.459Z,5.30
2022-08-28T23:08:34.008Z,5.60
2022-08-28T23:11:05.261Z,6.70
2022-08-28T23:13:36.372Z,6.10
2022-08-28T23:16:08.293Z,5.50
2022-08-28T23:19:06.650Z,5.00
2022-08-28T23:21:30.003Z,4.90
2022-08-28T23:24:00.420Z,5.30
2022-08-28T23:26:31.841Z,5.50
2022-08-28T23:29:02.710Z,5.80
2022-08-28T23:31:33.257Z,6.30
2022-08-28T23:34:05.002Z,6.20
2022-08-28T23:36:36.749Z,5.60
2022-08-28T23:39:09.719Z,5.00
2022-08-28T23:41:40.369Z,5.70
2022-08-28T23:44:11.718Z,5.90
2022-08-28T23:46:42.425Z,6.80
2022-08-28T23:49:13.966Z,6.40
2022-08-28T23:51:48.412Z,6.60
2022-08-28T23:54:22.870Z,5.90
2022-08-28T23:56:53.061Z,5.70
2022-08-28T23:59:23.654Z,5.70
